Time;durP1;ratioP1;P1;durP2;ratioP2;P2;SDS_P1;SDS_P2;PMS_P1;PMS_P2;Temp;Humidity;BMP_temperature;BMP_pressure;BME280_temperature;BME280_humidity;BME280_pressure;Samples;Min_cycle;Max_cycle;Signal;HPM_P1;HPM_P2
2022/06/14 00:01:03;;;;;;;0.13;0.13;;;10.80;99.90;;;;;;5072096;28;20098;-79
2022/06/14 00:03:42;;;;;;;0.10;0.10;;;10.80;99.90;;;;;;5072077;28;20634;-79
2022/06/14 00:06:12;;;;;;;0.10;0.10;;;10.70;99.90;;;;;;5074131;28;20412;-79
2022/06/14 00:08:40;;;;;;;0.15;0.15;;;10.70;99.90;;;;;;5109283;28;20543;-79
2022/06/14 00:11:12;;;;;;;0.13;0.13;;;10.70;99.90;;;;;;5093015;28;20412;-79
2022/06/14 00:13:39;;;;;;;0.10;0.10;;;10.70;99.90;;;;;;5075749;28;20036;-79
2022/06/14 00:16:07;;;;;;;0.15;0.10;;;10.70;99.90;;;;;;5092556;28;20046;-79
2022/06/14 00:18:34;;;;;;;0.10;0.10;;;10.70;99.90;;;;;;5059333;28;20477;-79
2022/06/14 00:21:01;;;;;;;0.10;0.10;;;10.70;99.90;;;;;;5076268;28;20032;-79
2022/06/14 00:23:28;;;;;;;0.10;0.10;;;10.60;99.90;;;;;;5091982;28;20414;-79
2022/06/14 00:25:57;;;;;;;0.10;0.10;;;10.60;99.90;;;;;;5092324;28;20037;-80
2022/06/14 00:28:27;;;;;;;0.30;0.20;;;10.60;99.90;;;;;;5092621;28;20131;-79
2022/06/14 00:31:06;;;;;;;0.20;0.20;;;10.60;99.90;;;;;;5092298;28;20087;-79
2022/06/14 00:33:34;;;;;;;0.10;0.10;;;10.60;99.90;;;;;;5092133;28;20040;-79
2022/06/14 00:36:06;;;;;;;0.20;0.10;;;10.60;99.90;;;;;;5075452;28;20078;-79
2022/06/14 00:38:35;;;;;;;0.15;0.10;;;10.60;99.90;;;;;;5091793;28;20546;-79
2022/06/14 00:41:03;;;;;;;0.10;0.10;;;10.60;99.90;;;;;;5075507;28;20379;-79
2022/06/14 00:43:31;;;;;;;0.10;0.10;;;10.60;99.90;;;;;;5092110;28;20059;-79
2022/06/14 00:46:10;;;;;;;0.20;0.20;;;10.60;99.90;;;;;;5092738;28;20037;-79
2022/06/14 00:48:40;;;;;;;0.10;0.10;;;10.60;99.90;;;;;;5075515;28;20075;-79
2022/06/14 00:51:18;;;;;;;0.13;0.13;;;10.60;99.90;;;;;;5075266;28;20539;-79
2022/06/14 00:54:10;;;;;;;0.10;0.10;;;10.60;99.90;;;;;;5074840;28;20052;-79
2022/06/14 00:56:47;;;;;;;0.13;0.13;;;10.60;99.90;;;;;;5071310;28;20460;-79
2022/06/14 00:59:24;;;;;;;0.20;0.20;;;10.60;99.90;;;;;;5055537;28;20045;-79
2022/06/14 01:01:56;;;;;;;0.52;0.50;;;10.60;99.90;;;;;;5071304;28;20043;-79
2022/06/14 01:04:28;;;;;;;0.13;0.13;;;10.70;99.90;;;;;;5072020;28;20045;-79
2022/06/14 01:07:01;;;;;;;0.10;0.10;;;10.70;99.90;;;;;;5075025;28;20036;-79
2022/06/14 01:09:37;;;;;;;0.10;0.10;;;10.70;99.90;;;;;;5075466;28;20140;-79
2022/06/14 01:12:09;;;;;;;0.10;0.10;;;10.60;99.90;;;;;;5074844;28;20074;-79
2022/06/14 01:14:42;;;;;;;0.10;0.10;;;10.60;99.90;;;;;;5074763;28;20040;-78
2022/06/14 01:17:11;;;;;;;0.20;0.20;;;10.60;99.90;;;;;;5073509;28;20072;-79
2022/06/14 01:19:38;;;;;;;0.13;0.10;;;10.70;99.90;;;;;;5074759;28;20064;-79
2022/06/14 01:22:05;;;;;;;0.25;0.25;;;10.60;99.90;;;;;;5074987;28;20045;-79
2022/06/14 01:24:33;;;;;;;0.10;0.10;;;10.50;99.90;;;;;;5075031;28;20040;-79
2022/06/14 01:27:00;;;;;;;0.20;0.20;;;10.50;99.90;;;;;;5090564;28;20085;-79
2022/06/14 01:29:29;;;;;;;0.10;0.10;;;10.50;99.90;;;;;;5074593;28;20497;-78
2022/06/14 01:32:00;;;;;;;0.10;0.10;;;10.40;99.90;;;;;;5091231;28;20044;-79
2022/06/14 01:34:30;;;;;;;0.10;0.10;;;10.40;99.90;;;;;;5074644;28;20409;-79
2022/06/14 01:36:59;;;;;;;0.10;0.10;;;10.40;99.90;;;;;;5090858;28;20516;-79
2022/06/14 01:39:27;;;;;;;0.10;0.10;;;10.40;99.90;;;;;;5074625;28;20042;-79
2022/06/14 01:42:26;;;;;;;0.00;0.00;;;10.40;99.90;;;;;;5074096;28;20049;-79
2022/06/14 01:45:05;;;;;;;0.05;0.05;;;10.40;99.90;;;;;;5054222;28;20063;-79
2022/06/14 01:47:43;;;;;;;0.25;0.25;;;10.30;99.90;;;;;;5074054;28;20127;-79
2022/06/14 01:53:40;;;;;;;0.10;0.10;;;10.30;99.90;;;;;;5107375;28;20413;-79
2022/06/14 01:56:17;;;;;;;0.10;0.10;;;10.30;99.90;;;;;;5090527;28;20807;-79
2022/06/14 01:59:03;;;;;;;0.10;0.10;;;10.30;99.90;;;;;;5073756;28;20036;-79
2022/06/14 02:01:39;;;;;;;;;;;10.20;99.90;;;;;;5074932;28;20131;-79
2022/06/14 02:04:42;;;;;;;0.13;0.13;;;10.20;99.90;;;;;;5090988;28;19923;-79
2022/06/14 02:07:27;;;;;;;0.20;0.20;;;10.20;99.90;;;;;;5073839;28;20036;-79
2022/06/14 02:10:10;;;;;;;0.10;0.10;;;10.20;99.90;;;;;;5090379;28;20044;-79
2022/06/14 02:12:43;;;;;;;0.10;0.10;;;10.20;99.90;;;;;;5073950;28;20127;-79
2022/06/14 02:15:33;;;;;;;0.20;0.20;;;10.20;99.90;;;;;;5090530;28;20090;-79
2022/06/14 02:18:03;;;;;;;0.10;0.10;;;10.20;99.90;;;;;;5090588;28;20051;-79
2022/06/14 02:20:59;;;;;;;0.10;0.10;;;10.20;99.90;;;;;;5073969;28;20041;-79
2022/06/14 02:23:30;;;;;;;0.10;0.10;;;10.20;99.90;;;;;;5088024;28;20532;-79
2022/06/14 02:26:05;;;;;;;0.20;0.20;;;10.20;99.90;;;;;;5089410;28;20322;-79
2022/06/14 02:28:44;;;;;;;0.20;0.20;;;10.20;99.90;;;;;;5073091;28;20128;-80
2022/06/14 02:31:19;;;;;;;0.35;0.10;;;10.20;99.90;;;;;;5090019;28;20066;-80
2022/06/14 02:33:52;;;;;;;0.13;0.10;;;10.10;99.90;;;;;;5073079;28;20072;-79
2022/06/14 02:36:29;;;;;;;0.15;0.15;;;10.10;99.90;;;;;;5072937;28;20393;-79
2022/06/14 02:39:02;;;;;;;0.25;0.10;;;10.20;99.90;;;;;;5073296;28;20043;-79
2022/06/14 02:41:35;;;;;;;0.20;0.20;;;10.20;99.90;;;;;;5090288;28;20040;-79
2022/06/14 02:44:16;;;;;;;0.10;0.10;;;10.30;99.90;;;;;;5089538;28;20040;-79
2022/06/14 02:47:06;;;;;;;0.17;0.17;;;10.30;99.90;;;;;;5073657;28;20040;-79
2022/06/14 02:49:54;;;;;;;0.10;0.10;;;10.30;99.90;;;;;;5039557;28;20053;-79
2022/06/14 02:52:32;;;;;;;0.10;0.10;;;10.40;99.90;;;;;;5069815;28;20060;-79
2022/06/14 02:55:21;;;;;;;0.10;0.10;;;10.40;99.90;;;;;;5065570;28;20549;-79
2022/06/14 02:57:55;;;;;;;0.10;0.10;;;10.40;99.90;;;;;;5067945;28;20037;-79
2022/06/14 03:00:28;;;;;;;0.30;0.30;;;10.50;99.90;;;;;;5085953;28;20045;-79
2022/06/14 03:03:11;;;;;;;0.55;0.35;;;10.50;99.90;;;;;;5085732;28;20045;-79
2022/06/14 03:06:31;;;;;;;0.40;0.30;;;10.50;99.90;;;;;;5068947;28;20850;-79
2022/06/14 03:09:07;;;;;;;0.10;0.10;;;10.50;99.90;;;;;;4989038;28;20042;-80
2022/06/14 03:11:39;;;;;;;;;;;10.50;99.90;;;;;;5100843;28;20080;-79
2022/06/14 03:14:33;;;;;;;1.63;0.55;;;10.60;99.90;;;;;;5084785;28;19921;-79
2022/06/14 03:17:31;;;;;;;0.22;0.22;;;10.60;99.90;;;;;;5085426;28;20063;-79
2022/06/14 03:20:03;;;;;;;0.10;0.10;;;10.60;99.90;;;;;;5068382;28;20033;-79
2022/06/14 03:22:49;;;;;;;0.10;0.10;;;10.60;99.90;;;;;;5085723;28;20814;-79
2022/06/14 03:25:16;;;;;;;;;;;10.70;99.90;;;;;;5086134;28;20052;-79
2022/06/14 03:28:11;;;;;;;0.20;0.20;;;10.70;99.90;;;;;;5085939;28;19917;-79
2022/06/14 03:30:50;;;;;;;0.10;0.10;;;10.60;99.90;;;;;;5068969;28;20041;-79
2022/06/14 03:33:29;;;;;;;0.10;0.10;;;10.70;99.90;;;;;;5068742;28;20338;-79
2022/06/14 03:35:56;;;;;;;0.10;0.10;;;10.70;99.90;;;;;;5068577;28;20045;-80
2022/06/14 03:38:50;;;;;;;0.10;0.10;;;10.70;99.90;;;;;;5068645;28;20048;-80
2022/06/14 03:41:24;;;;;;;0.10;0.10;;;10.70;99.90;;;;;;5068166;28;20041;-79
2022/06/14 03:43:55;;;;;;;0.10;0.10;;;10.70;99.90;;;;;;5068775;28;20049;-79
2022/06/14 03:46:22;;;;;;;0.17;0.10;;;10.70;99.90;;;;;;5076759;28;20052;-79
2022/06/14 03:48:55;;;;;;;0.20;0.20;;;10.70;99.90;;;;;;5071298;28;20041;-79
2022/06/14 03:52:07;;;;;;;0.10;0.10;;;10.70;99.90;;;;;;5083932;28;20159;-79
2022/06/14 03:54:34;;;;;;;0.13;0.13;;;10.70;99.90;;;;;;5083681;28;20088;-79
2022/06/14 03:57:21;;;;;;;0.10;0.10;;;10.70;99.90;;;;;;5080711;28;20083;-79
2022/06/14 04:00:29;;;;;;;0.17;0.17;;;10.70;99.90;;;;;;5079342;28;20148;-79
2022/06/14 04:03:34;;;;;;;0.10;0.10;;;10.80;99.90;;;;;;5073646;28;20029;-79
2022/06/14 04:06:13;;;;;;;0.20;0.20;;;10.80;99.90;;;;;;5056291;28;20069;-79
2022/06/14 04:09:15;;;;;;;0.10;0.10;;;10.80;99.90;;;;;;5072197;28;20048;-79
2022/06/14 04:12:20;;;;;;;0.17;0.17;;;10.80;99.90;;;;;;5070793;28;20118;-79
2022/06/14 04:15:09;;;;;;;0.22;0.20;;;10.80;99.90;;;;;;5064576;28;20521;-80
2022/06/14 04:18:34;;;;;;;0.20;0.20;;;10.80;99.90;;;;;;5082464;28;20055;-79
2022/06/14 04:20:53;;;;;;;0.10;0.10;;;10.80;99.90;;;;;;5076990;28;20048;-79
2022/06/14 04:23:29;;;;;;;0.20;0.15;;;10.80;99.90;;;;;;5064884;28;20037;-79
2022/06/14 04:26:07;;;;;;;0.10;0.10;;;10.80;99.90;;;;;;5074552;28;20043;-80
2022/06/14 04:29:01;;;;;;;0.10;0.10;;;10.80;99.90;;;;;;5065612;28;20044;-79
2022/06/14 04:31:37;;;;;;;0.10;0.10;;;10.80;99.90;;;;;;5084880;28;20044;-80
2022/06/14 04:34:28;;;;;;;0.20;0.20;;;10.80;99.90;;;;;;5084716;28;20055;-79
2022/06/14 04:37:02;;;;;;;0.10;0.10;;;10.90;99.90;;;;;;5055375;28;20084;-80
2022/06/14 04:39:42;;;;;;;0.30;0.20;;;10.90;99.90;;;;;;5064808;28;20033;-79
2022/06/14 04:42:19;;;;;;;0.22;0.17;;;10.90;99.90;;;;;;5048068;28;20041;-79
2022/06/14 04:44:57;;;;;;;0.20;0.20;;;10.90;99.90;;;;;;5064615;28;20045;-79
2022/06/14 04:47:43;;;;;;;0.20;0.13;;;10.90;99.90;;;;;;5076574;28;20045;-79
2022/06/14 04:50:20;;;;;;;0.20;0.20;;;11.00;99.90;;;;;;5084529;28;20055;-80
2022/06/14 04:53:06;;;;;;;0.10;0.10;;;11.00;99.90;;;;;;5087907;28;20060;-79
2022/06/14 04:55:43;;;;;;;0.10;0.10;;;11.00;99.90;;;;;;5071742;28;20497;-79
2022/06/14 04:58:16;;;;;;;0.13;0.13;;;11.00;99.90;;;;;;5088027;28;20097;-79
2022/06/14 05:00:55;;;;;;;0.10;0.10;;;11.10;99.90;;;;;;5071518;28;20111;-79
2022/06/14 05:03:38;;;;;;;0.13;0.13;;;11.10;99.90;;;;;;5088087;28;20116;-79
2022/06/14 05:06:24;;;;;;;0.10;0.10;;;11.20;99.90;;;;;;5087753;28;20045;-79
2022/06/14 05:09:04;;;;;;;0.10;0.10;;;11.30;99.90;;;;;;5071496;28;20406;-79
2022/06/14 05:11:57;;;;;;;0.00;0.00;;;11.40;99.90;;;;;;5071636;28;20044;-79
2022/06/14 05:14:39;;;;;;;0.10;0.10;;;11.50;99.90;;;;;;5087589;28;20087;-79
2022/06/14 05:17:19;;;;;;;0.20;0.20;;;11.60;99.90;;;;;;5070824;28;20068;-79
2022/06/14 05:20:10;;;;;;;0.10;0.10;;;11.70;99.90;;;;;;5071305;28;20486;-80
2022/06/14 05:23:17;;;;;;;0.60;0.35;;;11.70;99.90;;;;;;5087725;28;20063;-79
2022/06/14 05:25:51;;;;;;;0.10;0.10;;;11.80;99.90;;;;;;5087712;28;20131;-79
2022/06/14 05:28:47;;;;;;;0.15;0.15;;;11.90;99.90;;;;;;5087542;28;20102;-79
2022/06/14 05:31:27;;;;;;;0.15;0.15;;;11.90;99.90;;;;;;5052226;28;20102;-79
2022/06/14 05:34:22;;;;;;;0.13;0.13;;;12.00;99.90;;;;;;5087790;28;20037;-79
2022/06/14 05:36:59;;;;;;;0.43;0.17;;;12.10;99.90;;;;;;5087550;28;20128;-79
2022/06/14 05:39:42;;;;;;;0.15;0.15;;;12.10;99.90;;;;;;5075612;28;20449;-79
2022/06/14 05:42:19;;;;;;;0.15;0.15;;;12.30;99.90;;;;;;5087095;28;20094;-79
2022/06/14 05:44:49;;;;;;;0.10;0.10;;;12.40;99.90;;;;;;5087382;28;20454;-79
2022/06/14 05:47:45;;;;;;;0.55;0.20;;;12.40;99.90;;;;;;5086909;28;20045;-79
2022/06/14 05:50:19;;;;;;;0.20;0.20;;;12.40;99.90;;;;;;5070863;28;20068;-79
2022/06/14 05:53:34;;;;;;;0.38;0.20;;;12.50;99.90;;;;;;5070241;28;20378;-79
2022/06/14 05:56:17;;;;;;;0.17;0.17;;;12.60;99.90;;;;;;5010177;28;20047;-79
2022/06/14 05:59:37;;;;;;;0.17;0.17;;;12.70;99.90;;;;;;5010201;28;20038;-79
2022/06/14 06:02:14;;;;;;;0.10;0.10;;;12.70;99.90;;;;;;5070179;28;20127;-79
2022/06/14 06:05:01;;;;;;;0.15;0.10;;;12.80;99.90;;;;;;5086169;28;20045;-79
2022/06/14 06:07:33;;;;;;;0.28;0.28;;;12.90;99.90;;;;;;5086540;28;20041;-79
2022/06/14 06:10:05;;;;;;;0.25;0.20;;;13.00;99.90;;;;;;5069717;28;20084;-79
2022/06/14 06:12:38;;;;;;;0.65;0.57;;;13.10;99.90;;;;;;5086430;28;20041;-79
2022/06/14 06:15:20;;;;;;;0.28;0.25;;;13.20;99.90;;;;;;5055624;28;20100;-79
2022/06/14 06:17:53;;;;;;;0.10;0.10;;;13.30;99.90;;;;;;5067561;28;20033;-79
2022/06/14 06:20:41;;;;;;;0.10;0.10;;;13.40;99.90;;;;;;5063172;28;20102;-79
2022/06/14 06:23:19;;;;;;;0.20;0.20;;;13.40;99.90;;;;;;5074669;28;20040;-79
2022/06/14 06:25:53;;;;;;;0.10;0.10;;;13.50;99.90;;;;;;5059310;28;20051;-79
2022/06/14 06:28:28;;;;;;;0.15;0.10;;;13.50;99.90;;;;;;5061863;28;20044;-79
2022/06/14 06:31:17;;;;;;;0.20;0.20;;;13.50;99.90;;;;;;5076393;28;20043;-79
2022/06/14 06:33:47;;;;;;;0.40;0.28;;;13.60;99.90;;;;;;5096041;28;20111;-79
2022/06/14 06:36:45;;;;;;;0.10;0.10;;;13.70;99.90;;;;;;5076258;28;20084;-79
2022/06/14 06:39:18;;;;;;;0.10;0.10;;;13.80;99.90;;;;;;5068994;28;20374;-79
2022/06/14 06:42:02;;;;;;;0.10;0.10;;;13.90;99.90;;;;;;5075062;28;20117;-79
2022/06/14 06:44:36;;;;;;;0.60;0.50;;;14.00;99.90;;;;;;5085478;28;20476;-79
2022/06/14 06:47:07;;;;;;;0.10;0.10;;;14.10;99.90;;;;;;5089826;28;20057;-79
2022/06/14 06:50:02;;;;;;;0.10;0.10;;;14.20;99.90;;;;;;5065717;28;20410;-79
2022/06/14 06:52:50;;;;;;;0.10;0.10;;;14.20;99.90;;;;;;5054492;28;20041;-79
2022/06/14 06:55:45;;;;;;;0.10;0.10;;;14.30;99.90;;;;;;5103840;28;20117;-80
2022/06/14 06:58:35;;;;;;;0.20;0.17;;;14.40;99.90;;;;;;5052734;28;20049;-80
2022/06/14 07:01:34;;;;;;;0.10;0.10;;;14.50;99.90;;;;;;5078280;28;20064;-80
2022/06/14 07:07:18;;;;;;;0.10;0.10;;;14.60;99.90;;;;;;5076383;28;20072;-80
2022/06/14 07:10:00;;;;;;;0.10;0.10;;;14.70;99.90;;;;;;5076403;28;20524;-81
2022/06/14 07:12:36;;;;;;;0.30;0.20;;;14.60;99.90;;;;;;5085873;28;20183;-80
2022/06/14 07:15:18;;;;;;;0.10;0.10;;;14.60;99.90;;;;;;5100884;28;20119;-81
2022/06/14 07:18:02;;;;;;;0.43;0.30;;;14.60;99.90;;;;;;5055640;28;20037;-80
2022/06/14 07:20:29;;;;;;;0.25;0.10;;;14.70;99.90;;;;;;5069093;28;20075;-81
2022/06/14 07:23:11;;;;;;;0.20;0.20;;;14.80;99.90;;;;;;5086376;28;20083;-81
2022/06/14 07:25:51;;;;;;;0.38;0.20;;;14.80;99.90;;;;;;5085614;28;20041;-80
2022/06/14 07:28:50;;;;;;;0.15;0.15;;;14.90;99.90;;;;;;5069677;28;20045;-80
2022/06/14 07:31:32;;;;;;;0.32;0.20;;;15.00;99.90;;;;;;5069391;28;20048;-81
2022/06/14 07:34:00;;;;;;;0.20;0.10;;;15.10;99.90;;;;;;5069014;28;20099;-80
2022/06/14 07:36:42;;;;;;;0.10;0.10;;;15.20;99.90;;;;;;5068999;28;20170;-80
2022/06/14 07:39:32;;;;;;;0.00;0.00;;;15.30;99.90;;;;;;5068795;28;20037;-81
2022/06/14 07:42:12;;;;;;;0.00;0.00;;;15.50;99.90;;;;;;5050536;28;20140;-80
2022/06/14 07:45:18;;;;;;;0.00;0.00;;;15.50;99.90;;;;;;5085304;28;20127;-80
2022/06/14 07:47:54;;;;;;;;;;;15.70;99.90;;;;;;5085770;28;20049;-80
2022/06/14 07:50:42;;;;;;;0.10;0.00;;;15.90;99.90;;;;;;5085532;28;19920;-80
2022/06/14 07:53:20;;;;;;;0.28;0.20;;;16.10;99.90;;;;;;5087805;28;20493;-80
2022/06/14 07:56:02;;;;;;;0.10;0.10;;;16.00;99.90;;;;;;5072092;28;20048;-81
2022/06/14 07:58:56;;;;;;;0.35;0.35;;;16.20;99.90;;;;;;5071888;28;20070;-80
2022/06/14 08:01:35;;;;;;;0.10;0.10;;;16.30;99.90;;;;;;5072426;28;20040;-80
2022/06/14 08:04:05;;;;;;;0.10;0.10;;;16.40;99.90;;;;;;5072497;28;20050;-80
2022/06/14 08:06:41;;;;;;;0.40;0.25;;;16.50;99.90;;;;;;5072178;28;20151;-80
2022/06/14 08:09:24;;;;;;;0.10;0.10;;;16.50;99.90;;;;;;5072017;28;20106;-80
2022/06/14 08:11:57;;;;;;;0.00;0.00;;;16.60;99.90;;;;;;5072264;28;20056;-80
2022/06/14 08:14:32;;;;;;;0.00;0.00;;;16.80;99.90;;;;;;5072149;28;20052;-81
2022/06/14 08:17:01;;;;;;;0.43;0.30;;;17.00;99.90;;;;;;5105749;28;20041;-81
2022/06/14 08:19:30;;;;;;;0.10;0.10;;;16.90;99.90;;;;;;5090255;28;20401;-81
2022/06/14 08:22:03;;;;;;;0.10;0.10;;;16.70;99.90;;;;;;5072297;28;20036;-80
2022/06/14 08:24:36;;;;;;;0.10;0.10;;;16.70;99.90;;;;;;5088493;28;20501;-79
2022/06/14 08:27:14;;;;;;;0.00;0.00;;;16.50;99.90;;;;;;5073967;28;20174;-80
2022/06/14 08:29:47;;;;;;;0.00;0.00;;;16.40;99.90;;;;;;5075686;28;20055;-80
2022/06/14 08:32:33;;;;;;;0.20;0.10;;;16.40;99.90;;;;;;5075806;28;20520;-80
2022/06/14 08:35:12;;;;;;;0.00;0.00;;;16.30;99.90;;;;;;5075894;28;20052;-80
2022/06/14 08:37:54;;;;;;;0.17;0.17;;;16.50;99.90;;;;;;5075799;28;21469;-81
2022/06/14 08:40:49;;;;;;;0.32;0.13;;;16.70;99.90;;;;;;5075705;28;20028;-80
2022/06/14 08:43:46;;;;;;;0.98;0.50;;;17.00;99.90;;;;;;5075654;28;20082;-81
2022/06/14 08:46:19;;;;;;;0.10;0.10;;;17.00;99.90;;;;;;5059787;28;20048;-80
2022/06/14 08:49:07;;;;;;;0.10;0.03;;;16.90;99.90;;;;;;5092020;28;20520;-81
2022/06/14 08:51:51;;;;;;;0.10;0.03;;;16.80;99.90;;;;;;5075243;28;20391;-80
2022/06/14 08:54:56;;;;;;;0.08;0.08;;;16.90;99.90;;;;;;5091851;28;20075;-80
2022/06/14 08:57:55;;;;;;;0.63;0.20;;;17.20;99.90;;;;;;5011747;28;20050;-81
2022/06/14 09:00:34;;;;;;;0.03;0.03;;;17.60;99.90;;;;;;5075432;28;20082;-80
2022/06/14 09:03:04;;;;;;;0.10;0.10;;;17.90;99.90;;;;;;5075374;28;20048;-80
2022/06/14 09:05:34;;;;;;;0.10;0.00;;;17.80;99.90;;;;;;5075169;28;20218;-80
2022/06/14 09:08:29;;;;;;;3.50;0.52;;;17.60;99.90;;;;;;5075144;28;20050;-80
2022/06/14 09:11:36;;;;;;;0.20;0.13;;;17.30;99.90;;;;;;5075037;28;20044;-81
2022/06/14 09:14:15;;;;;;;0.10;0.10;;;17.10;99.90;;;;;;5075164;28;20040;-81
2022/06/14 09:16:42;;;;;;;0.00;0.00;;;17.00;99.90;;;;;;5074638;28;20051;-80
2022/06/14 09:19:19;;;;;;;0.10;0.10;;;16.90;99.90;;;;;;5074683;28;20040;-80
2022/06/14 09:22:08;;;;;;;0.13;0.13;;;17.00;99.90;;;;;;5091213;28;20037;-81
2022/06/14 09:25:01;;;;;;;0.20;0.10;;;17.50;99.90;;;;;;5091250;28;20044;-81
2022/06/14 09:27:50;;;;;;;0.03;0.03;;;17.80;99.90;;;;;;5075097;28;20172;-80
2022/06/14 09:30:29;;;;;;;0.10;0.10;;;18.20;99.90;;;;;;5092177;28;20047;-80
2022/06/14 09:33:10;;;;;;;0.25;0.17;;;18.20;99.90;;;;;;5074756;28;20036;-80
2022/06/14 09:35:49;;;;;;;0.00;0.00;;;18.30;99.90;;;;;;5074586;28;20037;-80
2022/06/14 09:38:56;;;;;;;0.28;0.20;;;18.30;99.90;;;;;;5089945;28;20032;-81
2022/06/14 09:41:38;;;;;;;0.00;0.00;;;18.10;99.90;;;;;;5091360;28;20051;-81
2022/06/14 09:44:20;;;;;;;0.10;0.10;;;18.00;99.90;;;;;;5074640;28;20727;-81
2022/06/14 09:47:06;;;;;;;0.00;0.00;;;18.10;99.90;;;;;;5074339;28;20047;-80
2022/06/14 09:50:01;;;;;;;0.20;0.20;;;18.40;99.90;;;;;;5074273;28;20123;-80
2022/06/14 09:52:39;;;;;;;0.10;0.05;;;18.80;99.90;;;;;;5074344;28;20063;-81
2022/06/14 09:55:18;;;;;;;0.10;0.10;;;19.10;99.90;;;;;;5090718;28;20141;-81
2022/06/14 09:58:09;;;;;;;0.08;0.08;;;19.20;99.90;;;;;;5074224;28;20040;-81
2022/06/14 10:00:46;;;;;;;0.05;0.05;;;18.90;99.90;;;;;;5090513;28;20043;-80
2022/06/14 10:03:59;;;;;;;0.00;0.00;;;18.60;99.90;;;;;;5091212;28;20041;-80
2022/06/14 10:06:56;;;;;;;0.75;0.25;;;18.30;99.90;;;;;;5074440;28;20044;-80
2022/06/14 10:09:26;;;;;;;0.52;0.30;;;18.20;99.90;;;;;;5073876;28;20858;-80
2022/06/14 10:12:18;;;;;;;0.10;0.10;;;18.20;99.90;;;;;;5070422;28;20037;-80
2022/06/14 10:14:57;;;;;;;0.10;0.10;;;18.10;99.90;;;;;;5070074;28;20738;-81
2022/06/14 10:17:43;;;;;;;0.10;0.10;;;18.00;99.90;;;;;;5053910;28;20071;-81
2022/06/14 10:20:34;;;;;;;0.28;0.20;;;18.00;99.90;;;;;;5057061;28;20036;-81
2022/06/14 10:23:22;;;;;;;0.10;0.10;;;17.90;99.90;;;;;;5073529;28;20047;-80
2022/06/14 10:29:45;;;;;;;0.20;0.10;;;18.00;99.90;;;;;;5083020;28;20044;-80
2022/06/14 10:32:40;;;;;;;0.13;0.13;;;18.30;99.90;;;;;;5073241;28;20047;-81
2022/06/14 10:35:27;;;;;;;0.00;0.00;;;18.60;99.90;;;;;;5073310;28;20044;-80
2022/06/14 10:37:53;;;;;;;0.10;0.10;;;18.60;99.90;;;;;;5088982;28;20048;-79
2022/06/14 10:40:38;;;;;;;0.03;0.00;;;18.50;99.90;;;;;;5089544;28;20083;-81
2022/06/14 10:43:34;;;;;;;0.17;0.07;;;18.50;99.90;;;;;;5073197;28;20044;-81
2022/06/14 10:46:12;;;;;;;0.13;0.10;;;18.40;99.90;;;;;;5078289;28;20621;-80
2022/06/14 10:48:53;;;;;;;0.05;0.05;;;18.30;99.90;;;;;;5072463;28;20029;-80
2022/06/14 10:51:38;;;;;;;0.00;0.00;;;18.20;99.90;;;;;;5073317;28;20049;-81
2022/06/14 10:54:16;;;;;;;0.00;0.00;;;18.20;99.90;;;;;;5080730;28;20052;-80
2022/06/14 10:57:19;;;;;;;0.10;0.10;;;18.30;99.90;;;;;;5088867;28;20048;-81
2022/06/14 10:59:58;;;;;;;0.15;0.13;;;18.20;99.90;;;;;;5072021;28;20041;-81
2022/06/14 11:02:55;;;;;;;0.00;0.00;;;18.00;99.90;;;;;;5068057;28;20036;-80
2022/06/14 11:05:29;;;;;;;0.10;0.10;;;17.90;99.90;;;;;;5057059;28;20041;-81
2022/06/14 11:08:23;;;;;;;0.98;0.30;;;17.80;99.90;;;;;;5078674;28;20038;-80
2022/06/14 11:11:08;;;;;;;0.10;0.10;;;17.70;99.90;;;;;;5069258;28;20171;-81
2022/06/14 11:14:34;;;;;;;0.20;0.10;;;17.70;99.90;;;;;;5074775;28;20477;-80
2022/06/14 11:17:19;;;;;;;0.10;0.10;;;17.70;99.90;;;;;;5028562;28;20133;-80
2022/06/14 11:20:09;;;;;;;0.00;0.00;;;17.90;99.90;;;;;;5068533;28;20525;-80
2022/06/14 11:23:02;;;;;;;0.28;0.15;;;18.00;99.90;;;;;;5089454;28;20044;-82
2022/06/14 11:25:56;;;;;;;0.10;0.10;;;18.20;99.90;;;;;;5089821;28;20059;-81
2022/06/14 11:28:28;;;;;;;0.10;0.10;;;18.40;99.90;;;;;;5073053;28;20041;-83
2022/06/14 11:31:04;;;;;;;0.00;0.00;;;18.60;99.90;;;;;;5072866;28;20040;-83
2022/06/14 11:33:58;;;;;;;0.63;0.38;;;18.70;99.90;;;;;;5067070;28;20037;-83
2022/06/14 11:36:37;;;;;;;0.20;0.17;;;18.90;99.90;;;;;;5077819;28;20116;-82
2022/06/14 11:39:19;;;;;;;0.00;0.00;;;19.00;99.90;;;;;;5073709;28;20044;-83
2022/06/14 11:41:48;;;;;;;0.17;0.15;;;19.10;99.90;;;;;;5088022;28;20052;-84
2022/06/14 11:44:46;;;;;;;0.08;0.03;;;19.10;99.90;;;;;;5058357;28;20041;-82
2022/06/14 11:47:51;;;;;;;0.30;0.20;;;19.20;99.90;;;;;;5069265;28;20044;-81
2022/06/14 11:50:39;;;;;;;0.60;0.47;;;19.30;99.90;;;;;;5085905;28;20053;-81
2022/06/14 11:53:38;;;;;;;0.03;0.03;;;19.40;99.90;;;;;;5071943;28;20040;-81
2022/06/14 11:56:18;;;;;;;0.35;0.15;;;19.40;99.90;;;;;;5087169;28;20041;-82
2022/06/14 11:59:11;;;;;;;0.63;0.30;;;19.40;99.90;;;;;;5065279;28;20037;-82
2022/06/14 12:01:44;;;;;;;0.65;0.28;;;19.40;99.90;;;;;;5073496;28;20044;-81
2022/06/14 12:04:33;;;;;;;0.20;0.10;;;19.40;99.90;;;;;;5093958;28;20036;-82
2022/06/14 12:07:29;;;;;;;0.20;0.10;;;19.50;99.90;;;;;;5078207;28;20044;-80
2022/06/14 12:09:59;;;;;;;;;;;19.50;99.90;;;;;;5076381;28;20375;-81
2022/06/14 12:12:39;;;;;;;0.10;0.10;;;19.50;99.90;;;;;;5075672;28;20397;-80
2022/06/14 12:15:13;;;;;;;0.43;0.28;;;19.60;99.90;;;;;;5066363;28;20083;-81
2022/06/14 12:17:55;;;;;;;0.93;0.22;;;19.70;99.90;;;;;;5078918;28;20551;-82
2022/06/14 12:20:24;;;;;;;0.45;0.20;;;19.90;99.90;;;;;;5079364;28;20047;-82
2022/06/14 12:23:12;;;;;;;0.22;0.22;;;20.00;99.90;;;;;;5095638;28;20036;-82
2022/06/14 12:26:39;;;;;;;0.20;0.20;;;20.10;99.90;;;;;;5095382;28;20725;-82
2022/06/14 12:29:06;;;;;;;;;;;20.10;99.90;;;;;;5078796;28;20056;-83
2022/06/14 12:31:51;;;;;;;0.20;0.20;;;19.90;99.90;;;;;;5095204;28;20399;-82
2022/06/14 12:34:29;;;;;;;0.20;0.20;;;19.90;99.90;;;;;;5078383;28;20040;-82
2022/06/14 12:37:08;;;;;;;0.00;0.00;;;19.80;99.90;;;;;;5078966;28;20048;-82
2022/06/14 12:39:45;;;;;;;0.10;0.10;;;19.70;99.90;;;;;;5078824;28;20538;-82
2022/06/14 12:42:54;;;;;;;0.10;0.10;;;19.60;99.90;;;;;;5079211;28;20094;-82
2022/06/14 12:45:36;;;;;;;0.70;0.70;;;19.40;99.90;;;;;;5074091;28;20040;-82
2022/06/14 12:48:09;;;;;;;0.15;0.15;;;19.20;99.90;;;;;;5078449;28;20036;-82
2022/06/14 12:50:56;;;;;;;0.10;0.10;;;19.00;99.90;;;;;;5078939;28;20123;-82
2022/06/14 12:53:44;;;;;;;0.15;0.13;;;19.10;99.90;;;;;;5080991;28;20400;-82
2022/06/14 12:56:39;;;;;;;0.35;0.15;;;19.10;99.90;;;;;;5077901;28;20093;-82
2022/06/14 12:59:25;;;;;;;0.15;0.10;;;19.30;99.90;;;;;;5084194;28;20029;-81
2022/06/14 13:02:09;;;;;;;0.10;0.10;;;19.40;99.90;;;;;;5059235;28;20045;-80
2022/06/14 13:04:43;;;;;;;0.05;0.05;;;19.50;99.90;;;;;;5059604;28;20045;-81
2022/06/14 13:07:22;;;;;;;0.20;0.20;;;19.60;99.90;;;;;;5069263;28;20048;-81
2022/06/14 13:10:04;;;;;;;0.10;0.10;;;19.70;99.90;;;;;;5083394;28;20794;-82
2022/06/14 13:13:05;;;;;;;0.35;0.30;;;19.80;99.90;;;;;;5070867;28;20052;-80
2022/06/14 13:15:42;;;;;;;0.43;0.17;;;19.70;99.90;;;;;;5056834;28;20037;-82
2022/06/14 13:18:45;;;;;;;0.20;0.10;;;19.70;99.90;;;;;;5074746;28;20044;-82
2022/06/14 13:21:11;;;;;;;0.20;0.20;;;19.70;99.90;;;;;;5067713;28;20407;-81
2022/06/14 13:23:53;;;;;;;0.17;0.17;;;19.70;99.90;;;;;;5052239;28;20045;-81
2022/06/14 13:26:32;;;;;;;0.38;0.22;;;19.80;99.90;;;;;;5062173;28;20123;-81
2022/06/14 13:29:31;;;;;;;0.20;0.20;;;19.90;99.90;;;;;;5071892;28;20037;-81
2022/06/14 13:32:22;;;;;;;0.10;0.10;;;20.00;99.90;;;;;;5071769;28;20051;-82
2022/06/14 13:35:15;;;;;;;0.15;0.10;;;20.10;99.90;;;;;;5071343;28;20083;-81
2022/06/14 13:37:57;;;;;;;1.30;0.50;;;20.10;99.90;;;;;;5071595;28;20047;-81
2022/06/14 13:40:50;;;;;;;0.17;0.17;;;20.20;99.90;;;;;;5071341;28;20041;-81
2022/06/14 13:43:34;;;;;;;0.20;0.20;;;20.20;99.90;;;;;;5036386;28;20129;-82
2022/06/14 13:46:17;;;;;;;0.17;0.17;;;20.30;99.90;;;;;;5071392;28;20049;-81
2022/06/14 13:49:01;;;;;;;0.17;0.17;;;20.10;99.90;;;;;;5088119;28;20394;-82
2022/06/14 13:51:35;;;;;;;0.30;0.30;;;19.80;99.90;;;;;;5071066;28;20855;-81
2022/06/14 13:54:33;;;;;;;0.10;0.10;;;19.70;99.90;;;;;;5071029;28;20060;-82
2022/06/14 13:57:31;;;;;;;0.20;0.20;;;19.60;99.90;;;;;;5087661;28;20036;-81
2022/06/14 14:00:13;;;;;;;0.10;0.10;;;19.60;99.90;;;;;;5070913;28;20036;-82
2022/06/14 14:02:48;;;;;;;0.47;0.40;;;19.80;99.90;;;;;;5087562;28;20056;-81
2022/06/14 14:05:31;;;;;;;0.45;0.30;;;19.80;99.90;;;;;;5070907;28;20036;-81
2022/06/14 14:08:23;;;;;;;0.30;0.30;;;19.80;99.90;;;;;;5087262;28;20037;-81
2022/06/14 14:11:12;;;;;;;0.17;0.10;;;19.70;99.90;;;;;;5087385;28;20047;-82
2022/06/14 14:13:54;;;;;;;0.20;0.20;;;19.70;99.90;;;;;;5087274;28;20047;-81
2022/06/14 14:16:50;;;;;;;0.30;0.22;;;19.60;99.90;;;;;;5070256;28;20049;-81